sensor_id;sensor_type;location;lat;lon;timestamp;temperature;humidity
81307;DHT22;70775;50.846;3.224;2024-03-06T08:21:44;24.20;61.40
81307;DHT22;70775;50.846;3.224;2024-03-06T08:24:10;21.90;55.50
81307;DHT22;70775;50.846;3.224;2024-03-06T08:26:36;19.60;65.00
81307;DHT22;70775;50.846;3.224;2024-03-06T08:29:02;17.60;80.10
81307;DHT22;70775;50.846;3.224;2024-03-06T08:31:27;16.20;91.10
81307;DHT22;70775;50.846;3.224;2024-03-06T08:33:53;14.90;96.10
81307;DHT22;70775;50.846;3.224;2024-03-06T08:36:19;13.80;99.90
81307;DHT22;70775;50.846;3.224;2024-03-06T08:38:46;12.90;99.90
81307;DHT22;70775;50.846;3.224;2024-03-06T08:41:12;11.70;99.90
81307;DHT22;70775;50.846;3.224;2024-03-06T08:43:37;11.10;99.90
81307;DHT22;70775;50.846;3.224;2024-03-06T08:46:03;10.70;99.90
81307;DHT22;70775;50.846;3.224;2024-03-06T08:48:29;10.30;99.90
81307;DHT22;70775;50.846;3.224;2024-03-06T08:50:55;10.20;99.90
81307;DHT22;70775;50.846;3.224;2024-03-06T08:53:20;10.00;99.90
81307;DHT22;70775;50.846;3.224;2024-03-06T08:55:46;10.10;99.90
81307;DHT22;70775;50.846;3.224;2024-03-06T08:58:12;10.20;99.90
81307;DHT22;70775;50.846;3.224;2024-03-06T09:00:39;10.20;99.90
81307;DHT22;70775;50.846;3.224;2024-03-06T09:03:05;10.20;99.90
81307;DHT22;70775;50.846;3.224;2024-03-06T09:05:31;10.10;99.90
81307;DHT22;70775;50.846;3.224;2024-03-06T09:07:57;10.10;99.90
81307;DHT22;70775;50.846;3.224;2024-03-06T09:10:23;10.10;99.90
81307;DHT22;70775;50.846;3.224;2024-03-06T09:12:48;10.10;99.90
81307;DHT22;70775;50.846;3.224;2024-03-06T09:15:15;10.20;99.90
81307;DHT22;70775;50.846;3.224;2024-03-06T09:17:41;10.10;99.90
81307;DHT22;70775;50.846;3.224;2024-03-06T09:20:08;10.20;99.90
81307;DHT22;70775;50.846;3.224;2024-03-06T09:22:41;10.20;99.90
81307;DHT22;70775;50.846;3.224;2024-03-06T09:25:07;10.20;99.90
81307;DHT22;70775;50.846;3.224;2024-03-06T09:27:33;10.30;99.90
81307;DHT22;70775;50.846;3.224;2024-03-06T09:29:59;10.20;99.90
81307;DHT22;70775;50.846;3.224;2024-03-06T09:32:25;10.20;99.90
81307;DHT22;70775;50.846;3.224;2024-03-06T09:34:52;10.10;99.90
81307;DHT22;70775;50.846;3.224;2024-03-06T09:37:18;9.90;99.90
81307;DHT22;70775;50.846;3.224;2024-03-06T09:39:44;10.00;99.90
81307;DHT22;70775;50.846;3.224;2024-03-06T09:42:13;10.00;99.90
81307;DHT22;70775;50.846;3.224;2024-03-06T09:44:39;10.10;99.90
81307;DHT22;70775;50.846;3.224;2024-03-06T09:47:06;10.10;99.90
81307;DHT22;70775;50.846;3.224;2024-03-06T09:49:33;10.30;99.90
81307;DHT22;70775;50.846;3.224;2024-03-06T09:52:00;10.30;99.90
81307;DHT22;70775;50.846;3.224;2024-03-06T09:54:26;10.30;99.90
81307;DHT22;70775;50.846;3.224;2024-03-06T09:56:52;10.20;99.90
81307;DHT22;70775;50.846;3.224;2024-03-06T09:59:18;10.30;99.90
81307;DHT22;70775;50.846;3.224;2024-03-06T10:01:54;10.20;99.90
81307;DHT22;70775;50.846;3.224;2024-03-06T10:04:21;10.20;99.90
81307;DHT22;70775;50.846;3.224;2024-03-06T10:06:48;10.10;99.90
81307;DHT22;70775;50.846;3.224;2024-03-06T10:09:17;10.00;99.90
81307;DHT22;70775;50.846;3.224;2024-03-06T10:11:42;10.00;99.90
81307;DHT22;70775;50.846;3.224;2024-03-06T10:14:09;10.00;99.90
81307;DHT22;70775;50.846;3.224;2024-03-06T10:16:35;10.00;99.90
81307;DHT22;70775;50.846;3.224;2024-03-06T10:19:17;10.10;99.90
81307;DHT22;70775;50.846;3.224;2024-03-06T10:21:47;10.10;99.90
81307;DHT22;70775;50.846;3.224;2024-03-06T10:24:20;10.10;99.90
81307;DHT22;70775;50.846;3.224;2024-03-06T10:26:46;10.00;99.90
81307;DHT22;70775;50.846;3.224;2024-03-06T10:29:18;10.00;99.90
81307;DHT22;70775;50.846;3.224;2024-03-06T10:31:48;10.00;99.90
81307;DHT22;70775;50.846;3.224;2024-03-06T10:34:14;10.10;99.90
81307;DHT22;70775;50.846;3.224;2024-03-06T10:36:40;10.20;99.90
81307;DHT22;70775;50.846;3.224;2024-03-06T10:39:07;10.10;99.90
81307;DHT22;70775;50.846;3.224;2024-03-06T10:41:36;10.00;99.90
81307;DHT22;70775;50.846;3.224;2024-03-06T10:44:08;10.10;99.90
81307;DHT22;70775;50.846;3.224;2024-03-06T10:46:36;10.10;99.90
81307;DHT22;70775;50.846;3.224;2024-03-06T10:49:02;10.20;99.90
81307;DHT22;70775;50.846;3.224;2024-03-06T10:51:29;10.30;99.90
81307;DHT22;70775;50.846;3.224;2024-03-06T10:53:58;10.40;99.90
81307;DHT22;70775;50.846;3.224;2024-03-06T10:56:24;10.50;99.90
81307;DHT22;70775;50.846;3.224;2024-03-06T10:58:50;10.60;99.90
81307;DHT22;70775;50.846;3.224;2024-03-06T11:01:19;10.60;99.90
81307;DHT22;70775;50.846;3.224;2024-03-06T11:03:45;10.60;99.90
81307;DHT22;70775;50.846;3.224;2024-03-06T11:06:14;10.70;99.90
81307;DHT22;70775;50.846;3.224;2024-03-06T11:08:39;10.70;99.90
81307;DHT22;70775;50.846;3.224;2024-03-06T11:11:24;10.80;99.90
81307;DHT22;70775;50.846;3.224;2024-03-06T11:13:54;10.80;99.90
81307;DHT22;70775;50.846;3.224;2024-03-06T11:16:30;10.70;99.90
81307;DHT22;70775;50.846;3.224;2024-03-06T11:19:08;10.80;99.90
81307;DHT22;70775;50.846;3.224;2024-03-06T11:21:37;11.00;99.90
81307;DHT22;70775;50.846;3.224;2024-03-06T11:24:21;11.00;99.90
81307;DHT22;70775;50.846;3.224;2024-03-06T11:29:19;11.00;99.90
81307;DHT22;70775;50.846;3.224;2024-03-06T11:32:07;11.00;99.90
81307;DHT22;70775;50.846;3.224;2024-03-06T11:34:36;11.00;99.90
81307;DHT22;70775;50.846;3.224;2024-03-06T11:37:06;11.20;99.90
81307;DHT22;70775;50.846;3.224;2024-03-06T11:39:35;11.30;99.90
81307;DHT22;70775;50.846;3.224;2024-03-06T11:42:02;11.40;99.90
81307;DHT22;70775;50.846;3.224;2024-03-06T11:44:28;11.30;99.90
81307;DHT22;70775;50.846;3.224;2024-03-06T11:47:01;11.30;99.90
81307;DHT22;70775;50.846;3.224;2024-03-06T11:49:32;11.30;99.90
81307;DHT22;70775;50.846;3.224;2024-03-06T11:52:06;11.30;99.90
81307;DHT22;70775;50.846;3.224;2024-03-06T11:54:33;11.20;99.90
81307;DHT22;70775;50.846;3.224;2024-03-06T11:57:01;11.30;99.90
81307;DHT22;70775;50.846;3.224;2024-03-06T11:59:29;11.20;99.90
81307;DHT22;70775;50.846;3.224;2024-03-06T12:01:58;11.40;99.90
81307;DHT22;70775;50.846;3.224;2024-03-06T12:04:27;11.60;99.90
81307;DHT22;70775;50.846;3.224;2024-03-06T12:06:59;11.80;99.90
81307;DHT22;70775;50.846;3.224;2024-03-06T12:09:26;12.40;99.90
81307;DHT22;70775;50.846;3.224;2024-03-06T12:11:52;12.20;99.90
81307;DHT22;70775;50.846;3.224;2024-03-06T12:14:19;12.00;99.90
81307;DHT22;70775;50.846;3.224;2024-03-06T12:16:58;11.90;99.90
81307;DHT22;70775;50.846;3.224;2024-03-06T12:19:28;12.00;99.90
81307;DHT22;70775;50.846;3.224;2024-03-06T12:22:00;12.00;99.90
81307;DHT22;70775;50.846;3.224;2024-03-06T12:24:26;11.90;99.90
81307;DHT22;70775;50.846;3.224;2024-03-06T12:27:06;11.80;99.90
81307;DHT22;70775;50.846;3.224;2024-03-06T12:29:33;11.90;99.90
81307;DHT22;70775;50.846;3.224;2024-03-06T12:32:00;12.00;99.90
81307;DHT22;70775;50.846;3.224;2024-03-06T12:34:26;12.50;99.90
81307;DHT22;70775;50.846;3.224;2024-03-06T12:36:52;12.50;99.90
81307;DHT22;70775;50.846;3.224;2024-03-06T12:42:39;12.60;99.90
81307;DHT22;70775;50.846;3.224;2024-03-06T12:45:05;12.80;99.90
81307;DHT22;70775;50.846;3.224;2024-03-06T12:50:54;13.50;98.70
81307;DHT22;70775;50.846;3.224;2024-03-06T12:53:23;14.00;94.90
81307;DHT22;70775;50.846;3.224;2024-03-06T12:55:49;14.20;92.60
81307;DHT22;70775;50.846;3.224;2024-03-06T12:58:15;14.40;92.10
81307;DHT22;70775;50.846;3.224;2024-03-06T13:00:41;14.70;92.60
81307;DHT22;70775;50.846;3.224;2024-03-06T13:03:07;15.10;91.80
81307;DHT22;70775;50.846;3.224;2024-03-06T13:05:33;15.30;88.80
81307;DHT22;70775;50.846;3.224;2024-03-06T13:07:59;15.40;87.70
81307;DHT22;70775;50.846;3.224;2024-03-06T13:10:27;15.00;79.20
81307;DHT22;70775;50.846;3.224;2024-03-06T13:12:53;14.90;91.10
81307;DHT22;70775;50.846;3.224;2024-03-06T13:15:19;15.00;84.60
81307;DHT22;70775;50.846;3.224;2024-03-06T13:17:44;15.20;84.60
81307;DHT22;70775;50.846;3.224;2024-03-06T13:20:10;15.10;81.40
81307;DHT22;70775;50.846;3.224;2024-03-06T13:22:39;14.90;84.90
81307;DHT22;70775;50.846;3.224;2024-03-06T13:25:06;14.90;81.00
81307;DHT22;70775;50.846;3.224;2024-03-06T13:27:32;14.80;84.60
81307;DHT22;70775;50.846;3.224;2024-03-06T13:29:57;14.90;83.90
81307;DHT22;70775;50.846;3.224;2024-03-06T13:32:23;15.20;78.40
81307;DHT22;70775;50.846;3.224;2024-03-06T13:34:49;15.20;72.60
81307;DHT22;70775;50.846;3.224;2024-03-06T13:37:15;15.40;76.40
81307;DHT22;70775;50.846;3.224;2024-03-06T13:39:41;15.60;75.10
81307;DHT22;70775;50.846;3.224;2024-03-06T13:42:07;15.70;72.10
81307;DHT22;70775;50.846;3.224;2024-03-06T13:44:37;16.00;72.50
81307;DHT22;70775;50.846;3.224;2024-03-06T13:47:03;15.90;69.50
81307;DHT22;70775;50.846;3.224;2024-03-06T13:49:37;15.70;74.70
81307;DHT22;70775;50.846;3.224;2024-03-06T13:52:03;15.70;74.80
81307;DHT22;70775;50.846;3.224;2024-03-06T13:54:31;15.60;74.80
81307;DHT22;70775;50.846;3.224;2024-03-06T13:56:57;15.40;71.10
81307;DHT22;70775;50.846;3.224;2024-03-06T13:59:31;15.00;73.00
81307;DHT22;70775;50.846;3.224;2024-03-06T14:01:56;14.90;75.90
81307;DHT22;70775;50.846;3.224;2024-03-06T14:04:22;14.70;72.50
81307;DHT22;70775;50.846;3.224;2024-03-06T14:06:49;14.30;77.80
81307;DHT22;70775;50.846;3.224;2024-03-06T14:09:15;14.10;78.40
81307;DHT22;70775;50.846;3.224;2024-03-06T14:11:41;14.00;81.20
81307;DHT22;70775;50.846;3.224;2024-03-06T14:14:07;13.70;82.10
81307;DHT22;70775;50.846;3.224;2024-03-06T14:16:34;13.90;87.00
81307;DHT22;70775;50.846;3.224;2024-03-06T14:19:00;13.70;83.50
81307;DHT22;70775;50.846;3.224;2024-03-06T14:21:26;13.70;84.20
81307;DHT22;70775;50.846;3.224;2024-03-06T14:23:51;13.70;82.80
81307;DHT22;70775;50.846;3.224;2024-03-06T14:26:17;13.80;80.00
81307;DHT22;70775;50.846;3.224;2024-03-06T14:28:43;14.20;75.70
81307;DHT22;70775;50.846;3.224;2024-03-06T14:31:08;14.70;70.30
81307;DHT22;70775;50.846;3.224;2024-03-06T14:33:39;14.70;71.10
81307;DHT22;70775;50.846;3.224;2024-03-06T14:36:05;14.80;70.70
81307;DHT22;70775;50.846;3.224;2024-03-06T14:38:30;14.60;71.40
81307;DHT22;70775;50.846;3.224;2024-03-06T14:40:56;14.40;71.80
81307;DHT22;70775;50.846;3.224;2024-03-06T14:43:22;14.10;73.70
81307;DHT22;70775;50.846;3.224;2024-03-06T14:45:47;14.10;76.10
81307;DHT22;70775;50.846;3.224;2024-03-06T14:48:13;14.00;79.00
81307;DHT22;70775;50.846;3.224;2024-03-06T14:50:40;14.10;77.90
81307;DHT22;70775;50.846;3.224;2024-03-06T14:53:06;14.00;75.90
81307;DHT22;70775;50.846;3.224;2024-03-06T14:55:32;13.70;80.90
81307;DHT22;70775;50.846;3.224;2024-03-06T14:57:58;13.70;80.20
81307;DHT22;70775;50.846;3.224;2024-03-06T15:00:23;13.60;81.00
81307;DHT22;70775;50.846;3.224;2024-03-06T15:02:49;13.60;83.00
81307;DHT22;70775;50.846;3.224;2024-03-06T15:05:15;13.70;84.10
81307;DHT22;70775;50.846;3.224;2024-03-06T15:07:40;13.60;85.10
81307;DHT22;70775;50.846;3.224;2024-03-06T15:10:07;13.30;84.40
81307;DHT22;70775;50.846;3.224;2024-03-06T15:12:36;13.20;81.80
81307;DHT22;70775;50.846;3.224;2024-03-06T15:15:04;13.40;83.20
81307;DHT22;70775;50.846;3.224;2024-03-06T15:17:32;13.80;79.30
81307;DHT22;70775;50.846;3.224;2024-03-06T15:19:58;14.10;72.30
81307;DHT22;70775;50.846;3.224;2024-03-06T15:22:24;14.20;69.60
81307;DHT22;70775;50.846;3.224;2024-03-06T15:24:50;13.90;73.80
81307;DHT22;70775;50.846;3.224;2024-03-06T15:27:16;13.90;73.80
81307;DHT22;70775;50.846;3.224;2024-03-06T15:29:42;13.90;75.50
81307;DHT22;70775;50.846;3.224;2024-03-06T15:32:09;13.80;74.00
81307;DHT22;70775;50.846;3.224;2024-03-06T15:34:36;13.70;71.90
81307;DHT22;70775;50.846;3.224;2024-03-06T15:37:02;13.60;77.00
81307;DHT22;70775;50.846;3.224;2024-03-06T15:39:28;13.30;75.30
81307;DHT22;70775;50.846;3.224;2024-03-06T15:41:54;13.30;77.20
81307;DHT22;70775;50.846;3.224;2024-03-06T15:44:21;13.20;77.30
81307;DHT22;70775;50.846;3.224;2024-03-06T15:46:46;13.20;80.90
81307;DHT22;70775;50.846;3.224;2024-03-06T15:49:20;13.30;81.70
81307;DHT22;70775;50.846;3.224;2024-03-06T15:51:46;13.60;79.20
81307;DHT22;70775;50.846;3.224;2024-03-06T15:54:12;13.50;79.20
81307;DHT22;70775;50.846;3.224;2024-03-06T15:56:38;13.40;82.70
81307;DHT22;70775;50.846;3.224;2024-03-06T15:59:03;13.50;83.40
81307;DHT22;70775;50.846;3.224;2024-03-06T16:01:29;13.40;84.20
81307;DHT22;70775;50.846;3.224;2024-03-06T16:03:54;13.40;85.00
81307;DHT22;70775;50.846;3.224;2024-03-06T16:06:20;13.30;84.80
81307;DHT22;70775;50.846;3.224;2024-03-06T16:08:46;13.20;86.00
81307;DHT22;70775;50.846;3.224;2024-03-06T16:11:11;13.10;85.50
81307;DHT22;70775;50.846;3.224;2024-03-06T16:13:37;13.20;92.00
81307;DHT22;70775;50.846;3.224;2024-03-06T16:16:03;13.10;90.50
81307;DHT22;70775;50.846;3.224;2024-03-06T16:18:29;13.00;90.50
81307;DHT22;70775;50.846;3.224;2024-03-06T16:20:55;13.10;90.30
81307;DHT22;70775;50.846;3.224;2024-03-06T16:23:20;13.00;90.60
81307;DHT22;70775;50.846;3.224;2024-03-06T16:25:47;12.90;90.50
81307;DHT22;70775;50.846;3.224;2024-03-06T16:28:13;13.00;91.50
81307;DHT22;70775;50.846;3.224;2024-03-06T16:30:39;12.90;91.30
81307;DHT22;70775;50.846;3.224;2024-03-06T16:33:04;13.00;92.10
81307;DHT22;70775;50.846;3.224;2024-03-06T16:35:30;12.90;90.60
81307;DHT22;70775;50.846;3.224;2024-03-06T16:37:57;13.00;84.90
81307;DHT22;70775;50.846;3.224;2024-03-06T16:40:23;13.00;84.10
81307;DHT22;70775;50.846;3.224;2024-03-06T16:42:49;12.90;85.80
81307;DHT22;70775;50.846;3.224;2024-03-06T16:45:15;12.80;88.60
81307;DHT22;70775;50.846;3.224;2024-03-06T16:47:40;12.70;89.00
81307;DHT22;70775;50.846;3.224;2024-03-06T16:50:06;12.80;90.30
81307;DHT22;70775;50.846;3.224;2024-03-06T16:52:33;12.80;88.10
81307;DHT22;70775;50.846;3.224;2024-03-06T16:54:59;12.70;90.80
81307;DHT22;70775;50.846;3.224;2024-03-06T16:57:25;12.60;90.60
81307;DHT22;70775;50.846;3.224;2024-03-06T16:59:51;12.50;90.80
81307;DHT22;70775;50.846;3.224;2024-03-06T17:02:16;12.40;91.90
81307;DHT22;70775;50.846;3.224;2024-03-06T17:04:42;12.30;92.00
81307;DHT22;70775;50.846;3.224;2024-03-06T17:07:08;12.20;93.40
81307;DHT22;70775;50.846;3.224;2024-03-06T17:09:38;12.20;93.70
81307;DHT22;70775;50.846;3.224;2024-03-06T17:12:06;12.20;93.90
81307;DHT22;70775;50.846;3.224;2024-03-06T17:14:36;12.10;94.40
81307;DHT22;70775;50.846;3.224;2024-03-06T17:17:02;12.00;95.20
81307;DHT22;70775;50.846;3.224;2024-03-06T17:19:27;11.80;96.70
81307;DHT22;70775;50.846;3.224;2024-03-06T17:21:54;11.80;97.30
81307;DHT22;70775;50.846;3.224;2024-03-06T17:24:19;11.70;97.50
81307;DHT22;70775;50.846;3.224;2024-03-06T17:26:45;11.60;98.40
81307;DHT22;70775;50.846;3.224;2024-03-06T17:29:11;11.50;99.40
81307;DHT22;70775;50.846;3.224;2024-03-06T17:31:37;11.30;99.70
81307;DHT22;70775;50.846;3.224;2024-03-06T17:34:03;11.20;99.90
81307;DHT22;70775;50.846;3.224;2024-03-06T17:36:30;11.10;99.90
81307;DHT22;70775;50.846;3.224;2024-03-06T17:38:57;11.00;99.90
81307;DHT22;70775;50.846;3.224;2024-03-06T17:41:24;10.90;99.90
81307;DHT22;70775;50.846;3.224;2024-03-06T17:43:49;10.80;99.90
81307;DHT22;70775;50.846;3.224;2024-03-06T17:46:15;10.70;99.90
81307;DHT22;70775;50.846;3.224;2024-03-06T17:48:41;10.60;99.90
81307;DHT22;70775;50.846;3.224;2024-03-06T17:51:07;10.50;99.90
81307;DHT22;70775;50.846;3.224;2024-03-06T17:53:33;10.50;99.90
81307;DHT22;70775;50.846;3.224;2024-03-06T17:55:59;10.30;99.90
81307;DHT22;70775;50.846;3.224;2024-03-06T17:58:28;10.20;99.90
81307;DHT22;70775;50.846;3.224;2024-03-06T18:00:54;10.20;99.90
81307;DHT22;70775;50.846;3.224;2024-03-06T18:03:20;10.10;99.90
81307;DHT22;70775;50.846;3.224;2024-03-06T18:05:48;9.90;99.90
81307;DHT22;70775;50.846;3.224;2024-03-06T18:08:14;9.90;99.90
81307;DHT22;70775;50.846;3.224;2024-03-06T18:10:40;9.90;99.90
81307;DHT22;70775;50.846;3.224;2024-03-06T18:13:06;9.80;99.90
81307;DHT22;70775;50.846;3.224;2024-03-06T18:15:31;9.70;99.90
81307;DHT22;70775;50.846;3.224;2024-03-06T18:17:57;9.60;99.90
81307;DHT22;70775;50.846;3.224;2024-03-06T18:20:23;9.40;99.90
81307;DHT22;70775;50.846;3.224;2024-03-06T18:22:50;9.20;99.90
81307;DHT22;70775;50.846;3.224;2024-03-06T18:25:15;9.10;99.90
81307;DHT22;70775;50.846;3.224;2024-03-06T18:27:42;9.00;99.90
81307;DHT22;70775;50.846;3.224;2024-03-06T18:30:08;8.90;99.90
81307;DHT22;70775;50.846;3.224;2024-03-06T18:32:34;8.90;99.90
81307;DHT22;70775;50.846;3.224;2024-03-06T18:35:00;8.80;99.90
81307;DHT22;70775;50.846;3.224;2024-03-06T18:37:26;8.90;99.90
81307;DHT22;70775;50.846;3.224;2024-03-06T18:39:52;8.80;99.90
81307;DHT22;70775;50.846;3.224;2024-03-06T18:42:18;8.70;99.90
81307;DHT22;70775;50.846;3.224;2024-03-06T18:44:44;8.60;99.90
81307;DHT22;70775;50.846;3.224;2024-03-06T18:47:10;8.70;99.90
81307;DHT22;70775;50.846;3.224;2024-03-06T18:49:35;8.70;99.90
81307;DHT22;70775;50.846;3.224;2024-03-06T18:52:02;8.60;99.90
81307;DHT22;70775;50.846;3.224;2024-03-06T18:54:27;8.50;99.90
81307;DHT22;70775;50.846;3.224;2024-03-06T18:56:53;8.40;99.90
81307;DHT22;70775;50.846;3.224;2024-03-06T18:59:20;8.40;99.90
81307;DHT22;70775;50.846;3.224;2024-03-06T19:01:47;8.30;99.90
81307;DHT22;70775;50.846;3.224;2024-03-06T19:04:14;8.30;99.90
81307;DHT22;70775;50.846;3.224;2024-03-06T19:06:39;8.20;99.90
81307;DHT22;70775;50.846;3.224;2024-03-06T19:09:05;8.10;99.90
81307;DHT22;70775;50.846;3.224;2024-03-06T19:11:32;8.00;99.90
81307;DHT22;70775;50.846;3.224;2024-03-06T19:13:57;7.90;99.90
81307;DHT22;70775;50.846;3.224;2024-03-06T19:16:23;7.90;99.90
81307;DHT22;70775;50.846;3.224;2024-03-06T19:18:49;7.80;99.90
81307;DHT22;70775;50.846;3.224;2024-03-06T19:21:15;7.80;99.90
81307;DHT22;70775;50.846;3.224;2024-03-06T19:23:41;7.90;99.90
81307;DHT22;70775;50.846;3.224;2024-03-06T19:26:07;7.80;99.90
81307;DHT22;70775;50.846;3.224;2024-03-06T19:28:33;7.60;99.90
81307;DHT22;70775;50.846;3.224;2024-03-06T19:30:58;7.60;99.90
81307;DHT22;70775;50.846;3.224;2024-03-06T19:33:28;7.50;99.90
81307;DHT22;70775;50.846;3.224;2024-03-06T19:35:54;7.50;99.90
81307;DHT22;70775;50.846;3.224;2024-03-06T19:38:20;7.60;99.90
81307;DHT22;70775;50.846;3.224;2024-03-06T19:40:45;7.40;99.90
81307;DHT22;70775;50.846;3.224;2024-03-06T19:43:12;7.40;99.90
81307;DHT22;70775;50.846;3.224;2024-03-06T19:45:38;7.40;99.90
81307;DHT22;70775;50.846;3.224;2024-03-06T19:48:04;7.40;99.90
81307;DHT22;70775;50.846;3.224;2024-03-06T19:50:30;7.40;99.90
81307;DHT22;70775;50.846;3.224;2024-03-06T19:52:56;7.40;99.90
81307;DHT22;70775;50.846;3.224;2024-03-06T19:55:21;7.50;99.90
81307;DHT22;70775;50.846;3.224;2024-03-06T19:57:48;7.50;99.90
81307;DHT22;70775;50.846;3.224;2024-03-06T20:00:14;7.40;99.90
81307;DHT22;70775;50.846;3.224;2024-03-06T20:02:42;7.30;99.90
81307;DHT22;70775;50.846;3.224;2024-03-06T20:05:08;7.40;99.90
81307;DHT22;70775;50.846;3.224;2024-03-06T20:07:34;7.30;99.90
81307;DHT22;70775;50.846;3.224;2024-03-06T20:10:00;7.30;99.90
81307;DHT22;70775;50.846;3.224;2024-03-06T20:12:25;7.10;99.90
81307;DHT22;70775;50.846;3.224;2024-03-06T20:14:51;7.20;99.90
81307;DHT22;70775;50.846;3.224;2024-03-06T20:17:17;7.20;99.90
81307;DHT22;70775;50.846;3.224;2024-03-06T20:19:42;7.10;99.90
81307;DHT22;70775;50.846;3.224;2024-03-06T20:22:08;7.10;99.90
81307;DHT22;70775;50.846;3.224;2024-03-06T20:24:34;7.20;99.90
81307;DHT22;70775;50.846;3.224;2024-03-06T20:27:00;6.90;99.90
81307;DHT22;70775;50.846;3.224;2024-03-06T20:29:28;6.70;99.90
81307;DHT22;70775;50.846;3.224;2024-03-06T20:31:54;6.80;99.90
81307;DHT22;70775;50.846;3.224;2024-03-06T20:34:20;6.80;99.90
81307;DHT22;70775;50.846;3.224;2024-03-06T20:36:46;6.80;99.90
81307;DHT22;70775;50.846;3.224;2024-03-06T20:39:12;6.80;99.90
81307;DHT22;70775;50.846;3.224;2024-03-06T20:41:44;6.80;99.90
81307;DHT22;70775;50.846;3.224;2024-03-06T20:44:11;6.70;99.90
81307;DHT22;70775;50.846;3.224;2024-03-06T20:46:37;6.70;99.90
81307;DHT22;70775;50.846;3.224;2024-03-06T20:49:03;6.60;99.90
81307;DHT22;70775;50.846;3.224;2024-03-06T20:51:29;6.60;99.90
81307;DHT22;70775;50.846;3.224;2024-03-06T20:53:57;6.60;99.90
81307;DHT22;70775;50.846;3.224;2024-03-06T20:56:25;6.70;99.90
81307;DHT22;70775;50.846;3.224;2024-03-06T20:58:51;6.70;99.90
81307;DHT22;70775;50.846;3.224;2024-03-06T21:01:18;6.60;99.90
81307;DHT22;70775;50.846;3.224;2024-03-06T21:03:44;6.70;99.90
81307;DHT22;70775;50.846;3.224;2024-03-06T21:06:09;6.70;99.90
81307;DHT22;70775;50.846;3.224;2024-03-06T21:08:39;6.60;99.90
81307;DHT22;70775;50.846;3.224;2024-03-06T21:11:04;6.50;99.90
81307;DHT22;70775;50.846;3.224;2024-03-06T21:13:33;6.50;99.90
81307;DHT22;70775;50.846;3.224;2024-03-06T21:15:58;6.50;99.90
81307;DHT22;70775;50.846;3.224;2024-03-06T21:18:24;6.40;99.90
81307;DHT22;70775;50.846;3.224;2024-03-06T21:20:50;6.50;99.90
81307;DHT22;70775;50.846;3.224;2024-03-06T21:23:15;6.40;99.90
81307;DHT22;70775;50.846;3.224;2024-03-06T21:25:41;6.40;99.90
81307;DHT22;70775;50.846;3.224;2024-03-06T21:28:07;6.40;99.90
81307;DHT22;70775;50.846;3.224;2024-03-06T21:30:33;6.20;99.90
81307;DHT22;70775;50.846;3.224;2024-03-06T21:32:59;6.30;99.90
81307;DHT22;70775;50.846;3.224;2024-03-06T21:35:25;6.30;99.90
81307;DHT22;70775;50.846;3.224;2024-03-06T21:37:52;6.10;99.90
81307;DHT22;70775;50.846;3.224;2024-03-06T21:40:17;6.00;99.90
81307;DHT22;70775;50.846;3.224;2024-03-06T21:42:43;6.10;99.90
81307;DHT22;70775;50.846;3.224;2024-03-06T21:45:11;6.10;99.90
81307;DHT22;70775;50.846;3.224;2024-03-06T21:47:37;6.00;99.90
81307;DHT22;70775;50.846;3.224;2024-03-06T21:50:04;6.00;99.90
81307;DHT22;70775;50.846;3.224;2024-03-06T21:52:34;6.10;99.90
81307;DHT22;70775;50.846;3.224;2024-03-06T21:55:00;6.10;99.90
81307;DHT22;70775;50.846;3.224;2024-03-06T21:57:25;6.00;99.90
81307;DHT22;70775;50.846;3.224;2024-03-06T21:59:52;5.90;99.90
81307;DHT22;70775;50.846;3.224;2024-03-06T22:02:19;5.90;99.90
81307;DHT22;70775;50.846;3.224;2024-03-06T22:04:44;5.90;99.90
81307;DHT22;70775;50.846;3.224;2024-03-06T22:07:10;6.00;99.90
81307;DHT22;70775;50.846;3.224;2024-03-06T22:09:36;5.90;99.90
81307;DHT22;70775;50.846;3.224;2024-03-06T22:12:02;5.90;99.90
81307;DHT22;70775;50.846;3.224;2024-03-06T22:14:28;5.90;99.90
81307;DHT22;70775;50.846;3.224;2024-03-06T22:16:55;5.80;99.90
81307;DHT22;70775;50.846;3.224;2024-03-06T22:19:21;5.80;99.90
81307;DHT22;70775;50.846;3.224;2024-03-06T22:21:50;5.80;99.90
81307;DHT22;70775;50.846;3.224;2024-03-06T22:24:16;5.80;99.90
81307;DHT22;70775;50.846;3.224;2024-03-06T22:26:42;5.70;99.90
81307;DHT22;70775;50.846;3.224;2024-03-06T22:29:08;5.60;99.90
81307;DHT22;70775;50.846;3.224;2024-03-06T22:31:38;5.70;99.90
81307;DHT22;70775;50.846;3.224;2024-03-06T22:34:07;5.70;99.90
81307;DHT22;70775;50.846;3.224;2024-03-06T22:36:33;5.60;99.90
81307;DHT22;70775;50.846;3.224;2024-03-06T22:38:59;5.60;99.90
81307;DHT22;70775;50.846;3.224;2024-03-06T22:41:25;5.40;99.90
81307;DHT22;70775;50.846;3.224;2024-03-06T22:43:51;5.50;99.90
81307;DHT22;70775;50.846;3.224;2024-03-06T22:46:17;5.50;99.90
81307;DHT22;70775;50.846;3.224;2024-03-06T22:48:44;5.30;99.90
81307;DHT22;70775;50.846;3.224;2024-03-06T22:51:09;5.30;99.90
81307;DHT22;70775;50.846;3.224;2024-03-06T22:53:36;5.40;99.90
81307;DHT22;70775;50.846;3.224;2024-03-06T22:56:03;5.40;99.90
81307;DHT22;70775;50.846;3.224;2024-03-06T22:58:28;5.40;99.90
81307;DHT22;70775;50.846;3.224;2024-03-06T23:00:55;5.40;99.90
81307;DHT22;70775;50.846;3.224;2024-03-06T23:03:21;5.20;99.90
81307;DHT22;70775;50.846;3.224;2024-03-06T23:05:47;5.30;99.90
81307;DHT22;70775;50.846;3.224;2024-03-06T23:08:13;5.30;99.90
81307;DHT22;70775;50.846;3.224;2024-03-06T23:10:39;5.30;99.90
81307;DHT22;70775;50.846;3.224;2024-03-06T23:13:09;5.20;99.90
81307;DHT22;70775;50.846;3.224;2024-03-06T23:15:42;5.20;99.90
81307;DHT22;70775;50.846;3.224;2024-03-06T23:18:11;5.20;99.90
81307;DHT22;70775;50.846;3.224;2024-03-06T23:20:37;5.20;99.90
81307;DHT22;70775;50.846;3.224;2024-03-06T23:23:04;5.10;99.90
81307;DHT22;70775;50.846;3.224;2024-03-06T23:25:29;5.10;99.90
81307;DHT22;70775;50.846;3.224;2024-03-06T23:27:55;5.20;99.90
81307;DHT22;70775;50.846;3.224;2024-03-06T23:30:24;5.10;99.90
81307;DHT22;70775;50.846;3.224;2024-03-06T23:32:51;5.00;99.90
81307;DHT22;70775;50.846;3.224;2024-03-06T23:35:17;4.90;99.90
81307;DHT22;70775;50.846;3.224;2024-03-06T23:37:42;4.90;99.90
81307;DHT22;70775;50.846;3.224;2024-03-06T23:40:10;4.80;99.90
81307;DHT22;70775;50.846;3.224;2024-03-06T23:42:37;5.00;99.90
81307;DHT22;70775;50.846;3.224;2024-03-06T23:45:04;5.00;99.90
81307;DHT22;70775;50.846;3.224;2024-03-06T23:47:30;5.00;99.90
81307;DHT22;70775;50.846;3.224;2024-03-06T23:49:56;4.80;99.90
81307;DHT22;70775;50.846;3.224;2024-03-06T23:52:22;4.80;99.90
81307;DHT22;70775;50.846;3.224;2024-03-06T23:54:49;4.70;99.90
81307;DHT22;70775;50.846;3.224;2024-03-06T23:57:16;4.60;99.90
81307;DHT22;70775;50.846;3.224;2024-03-06T23:59:42;4.50;99.90
